createdAt,value
2023-05-14T00:01:28.981Z,19.40
2023-05-14T00:03:56.063Z,19.40
2023-05-14T00:06:22.983Z,19.40
2023-05-14T00:08:49.848Z,19.40
2023-05-14T00:11:16.957Z,19.40
2023-05-14T00:13:43.865Z,19.40
2023-05-14T00:16:12.220Z,19.30
2023-05-14T00:18:39.222Z,19.30
2023-05-14T00:21:06.124Z,19.30
2023-05-14T00:23:32.935Z,19.20
2023-05-14T00:25:59.869Z,19.20
2023-05-14T00:28:26.813Z,19.20
2023-05-14T00:30:53.797Z,19.20
2023-05-14T00:33:20.666Z,19.20
2023-05-14T00:35:47.547Z,19.20
2023-05-14T00:38:17.656Z,19.20
2023-05-14T00:40:46.017Z,19.10
2023-05-14T00:43:13.095Z,19.10
2023-05-14T00:45:40.326Z,19.10
2023-05-14T00:48:07.397Z,19.00
2023-05-14T00:50:34.652Z,19.00
2023-05-14T00:53:01.727Z,19.00
2023-05-14T00:55:30.753Z,19.00
2023-05-14T00:57:59.035Z,19.00
2023-05-14T01:00:26.353Z,19.00
2023-05-14T01:02:53.269Z,18.90
2023-05-14T01:05:20.407Z,18.90
2023-05-14T01:08:17.552Z,18.90
2023-05-14T01:10:57.558Z,18.90
2023-05-14T01:13:24.393Z,18.80
2023-05-14T01:15:52.497Z,18.80
2023-05-14T01:18:20.099Z,18.80
2023-05-14T01:20:51.546Z,18.80
2023-05-14T01:23:18.452Z,18.80
2023-05-14T01:25:45.446Z,18.80
2023-05-14T01:28:31.702Z,18.80
2023-05-14T01:31:12.330Z,18.70
2023-05-14T01:33:42.372Z,18.80
2023-05-14T01:36:09.792Z,18.70
2023-05-14T01:38:38.688Z,18.70
2023-05-14T01:41:06.196Z,18.70
2023-05-14T01:43:33.798Z,18.70
2023-05-14T01:46:00.812Z,18.70
2023-05-14T01:48:29.880Z,18.70
2023-05-14T01:50:56.867Z,18.60
2023-05-14T01:53:23.775Z,18.60
2023-05-14T01:55:50.624Z,18.60
2023-05-14T01:58:17.607Z,18.60
2023-05-14T02:00:44.600Z,18.50
2023-05-14T02:03:11.715Z,18.50
2023-05-14T02:05:38.665Z,18.40
2023-05-14T02:08:05.743Z,18.40
2023-05-14T02:10:32.813Z,18.40
2023-05-14T02:12:59.914Z,18.40
2023-05-14T02:15:27.200Z,18.40
2023-05-14T02:17:54.256Z,18.40
2023-05-14T02:20:21.141Z,18.40
2023-05-14T02:22:48.376Z,18.40
2023-05-14T02:25:15.275Z,18.40
2023-05-14T02:27:42.310Z,18.40
2023-05-14T02:30:10.466Z,18.40
2023-05-14T02:32:38.821Z,18.40
2023-05-14T02:35:06.472Z,18.30
2023-05-14T02:37:34.773Z,18.40
2023-05-14T02:40:01.835Z,18.30
2023-05-14T02:42:28.777Z,18.30
2023-05-14T02:44:56.757Z,18.30
2023-05-14T02:47:23.636Z,18.20
2023-05-14T02:49:50.537Z,18.20
2023-05-14T02:52:17.445Z,18.20
2023-05-14T02:54:44.323Z,18.10
2023-05-14T02:57:11.535Z,18.10
2023-05-14T02:59:38.312Z,18.10
2023-05-14T03:02:06.281Z,18.10
2023-05-14T03:04:34.023Z,18.10
2023-05-14T03:07:00.906Z,18.10
2023-05-14T03:09:27.836Z,18.00
2023-05-14T03:11:55.077Z,18.00
2023-05-14T03:14:21.889Z,18.00
2023-05-14T03:16:48.824Z,18.00
2023-05-14T03:19:15.865Z,18.00
2023-05-14T03:21:44.028Z,18.00
2023-05-14T03:24:11.663Z,18.00
2023-05-14T03:26:38.565Z,17.90
2023-05-14T03:29:05.427Z,17.90
2023-05-14T03:31:32.438Z,17.90
2023-05-14T03:34:00.219Z,17.90
2023-05-14T03:36:27.027Z,17.90
2023-05-14T03:38:53.823Z,17.80
2023-05-14T03:41:21.868Z,17.80
2023-05-14T03:43:48.814Z,17.80
2023-05-14T03:46:15.877Z,17.80
2023-05-14T03:48:43.086Z,17.70
2023-05-14T03:51:09.876Z,17.70
2023-05-14T03:53:36.855Z,17.70
2023-05-14T03:56:03.957Z,17.70
2023-05-14T03:58:31.038Z,17.70
2023-05-14T04:00:57.951Z,17.70
2023-05-14T04:03:25.542Z,17.70
2023-05-14T04:05:52.545Z,17.70
2023-05-14T04:08:19.872Z,17.70
2023-05-14T04:10:46.784Z,17.70
2023-05-14T04:13:13.588Z,17.70
2023-05-14T04:15:40.520Z,17.70
2023-05-14T04:18:07.962Z,17.60
2023-05-14T04:20:34.820Z,17.60
2023-05-14T04:23:01.855Z,17.60
2023-05-14T04:25:28.735Z,17.60
2023-05-14T04:27:55.527Z,17.70
2023-05-14T04:30:22.828Z,17.60
2023-05-14T04:32:50.036Z,17.60
2023-05-14T04:35:16.950Z,17.60
2023-05-14T04:37:43.748Z,17.60
2023-05-14T04:40:13.916Z,17.60
2023-05-14T04:42:40.867Z,17.60
2023-05-14T04:45:08.828Z,17.60
2023-05-14T04:47:36.010Z,17.60
2023-05-14T04:50:02.892Z,17.60
2023-05-14T04:52:29.852Z,17.60
2023-05-14T04:54:57.006Z,17.60
2023-05-14T04:57:23.946Z,17.60
2023-05-14T04:59:50.933Z,17.60
2023-05-14T05:02:17.787Z,17.60
2023-05-14T05:04:44.644Z,17.60
2023-05-14T05:07:12.922Z,17.60
2023-05-14T05:09:39.784Z,17.60
2023-05-14T05:12:07.088Z,17.60
2023-05-14T05:14:33.921Z,17.60
2023-05-14T05:17:00.775Z,17.70
2023-05-14T05:19:39.653Z,17.70
2023-05-14T05:22:10.565Z,17.80
2023-05-14T05:24:37.634Z,17.70
2023-05-14T05:27:05.582Z,17.70
2023-05-14T05:29:32.586Z,17.80
2023-05-14T05:31:59.598Z,17.80
2023-05-14T05:34:26.678Z,17.90
2023-05-14T05:36:53.458Z,17.90
2023-05-14T05:39:20.493Z,17.90
2023-05-14T05:41:47.308Z,17.90
2023-05-14T05:44:14.312Z,18.00
2023-05-14T05:46:41.317Z,18.00
2023-05-14T05:49:08.150Z,18.10
2023-05-14T05:51:34.976Z,18.10
2023-05-14T05:54:01.851Z,18.10
2023-05-14T05:56:28.697Z,18.20
2023-05-14T05:58:55.622Z,18.20
2023-05-14T06:01:22.499Z,18.20
2023-05-14T06:03:49.420Z,18.30
2023-05-14T06:06:16.244Z,18.40
2023-05-14T06:08:43.256Z,18.40
2023-05-14T06:11:10.538Z,18.40
2023-05-14T06:13:37.422Z,18.50
2023-05-14T06:16:04.454Z,18.50
2023-05-14T06:18:31.506Z,18.50
2023-05-14T06:21:00.084Z,18.60
2023-05-14T06:23:27.164Z,18.60
2023-05-14T06:25:54.099Z,18.60
2023-05-14T06:28:20.891Z,18.70
2023-05-14T06:30:50.341Z,18.70
2023-05-14T06:33:19.316Z,18.80
2023-05-14T06:35:47.415Z,18.90
2023-05-14T06:38:14.208Z,18.90
2023-05-14T06:40:41.019Z,19.00
2023-05-14T06:43:07.925Z,19.10
2023-05-14T06:45:34.826Z,19.20
2023-05-14T06:48:01.790Z,19.20
2023-05-14T06:50:28.860Z,19.30
2023-05-14T06:52:55.753Z,19.30
2023-05-14T06:55:22.776Z,19.30
2023-05-14T06:57:50.630Z,19.30
2023-05-14T07:00:17.867Z,19.40
2023-05-14T07:02:44.751Z,19.50
2023-05-14T07:05:11.767Z,19.60
2023-05-14T07:07:38.690Z,19.70
2023-05-14T07:10:06.544Z,20.00
2023-05-14T07:12:33.431Z,20.20
2023-05-14T07:15:00.413Z,20.50
2023-05-14T07:17:27.589Z,20.70
2023-05-14T07:19:56.025Z,21.00
2023-05-14T07:22:22.965Z,21.30
2023-05-14T07:24:50.391Z,21.50
2023-05-14T07:27:17.345Z,21.80
2023-05-14T07:29:44.435Z,22.00
2023-05-14T07:32:13.243Z,22.20
2023-05-14T07:34:41.882Z,22.30
2023-05-14T07:37:09.167Z,22.40
2023-05-14T07:39:36.056Z,22.60
2023-05-14T07:42:03.008Z,22.70
2023-05-14T07:44:29.847Z,22.90
2023-05-14T07:46:56.740Z,23.10
2023-05-14T07:49:23.566Z,23.20
2023-05-14T07:51:50.377Z,23.20
2023-05-14T07:54:17.411Z,23.30
2023-05-14T07:56:44.552Z,23.40
2023-05-14T07:59:11.577Z,23.50
2023-05-14T08:01:39.497Z,23.60
2023-05-14T08:04:06.632Z,23.70
2023-05-14T08:06:34.115Z,23.80
2023-05-14T08:09:01.107Z,23.90
2023-05-14T08:11:27.985Z,24.00
2023-05-14T08:13:54.768Z,24.10
2023-05-14T08:16:21.747Z,24.20
2023-05-14T08:18:48.875Z,24.30
2023-05-14T08:21:15.999Z,24.40
2023-05-14T08:23:42.914Z,24.50
2023-05-14T08:26:09.733Z,24.70
2023-05-14T08:28:36.598Z,24.80
2023-05-14T08:31:03.457Z,25.00
2023-05-14T08:33:30.352Z,25.10
2023-05-14T08:36:00.411Z,25.30
2023-05-14T08:38:27.294Z,25.50
2023-05-14T08:40:58.734Z,25.60
2023-05-14T08:43:27.776Z,25.80
2023-05-14T08:45:57.875Z,25.90
2023-05-14T08:48:29.162Z,26.00
2023-05-14T08:50:56.275Z,26.10
2023-05-14T08:53:23.240Z,26.20
2023-05-14T08:55:51.486Z,26.30
2023-05-14T08:58:32.358Z,26.40
2023-05-14T09:00:59.591Z,26.50
2023-05-14T09:03:26.741Z,26.60
2023-05-14T09:05:54.101Z,26.70
2023-05-14T09:08:21.226Z,26.80
2023-05-14T09:10:48.060Z,27.00
2023-05-14T09:13:15.162Z,27.10
2023-05-14T09:15:42.354Z,27.20
2023-05-14T09:18:10.334Z,27.30
2023-05-14T09:20:39.141Z,27.40
2023-05-14T09:23:06.038Z,27.40
2023-05-14T09:25:33.157Z,27.50
2023-05-14T09:28:00.213Z,27.50
2023-05-14T09:30:30.147Z,27.60
2023-05-14T09:32:57.094Z,27.60
2023-05-14T09:35:24.947Z,27.70
2023-05-14T09:37:54.359Z,27.80
2023-05-14T09:40:23.381Z,27.90
2023-05-14T09:42:50.959Z,28.00
2023-05-14T09:45:18.062Z,28.10
2023-05-14T09:47:45.516Z,28.10
2023-05-14T09:50:12.979Z,28.20
2023-05-14T09:52:40.267Z,28.30
2023-05-14T09:55:08.023Z,28.40
2023-05-14T09:57:35.452Z,28.30
2023-05-14T10:00:02.433Z,28.40
2023-05-14T10:02:41.248Z,28.50
2023-05-14T10:05:09.533Z,28.60
2023-05-14T10:07:43.058Z,28.70
2023-05-14T10:10:16.157Z,28.90
2023-05-14T10:12:46.352Z,29.00
2023-05-14T10:15:19.612Z,29.10
2023-05-14T10:17:52.651Z,29.20
2023-05-14T10:20:20.829Z,29.30
2023-05-14T10:22:47.740Z,29.30
2023-05-14T10:25:14.943Z,29.40
2023-05-14T10:27:42.616Z,29.50
2023-05-14T10:30:13.037Z,29.50
2023-05-14T10:32:42.096Z,29.50
2023-05-14T10:35:22.194Z,29.50
2023-05-14T10:37:51.497Z,29.60
2023-05-14T10:40:19.322Z,29.60
2023-05-14T10:42:46.911Z,29.70
2023-05-14T10:45:15.150Z,29.70
2023-05-14T10:47:47.170Z,29.80
2023-05-14T10:50:15.533Z,29.80
2023-05-14T10:52:43.880Z,29.80
2023-05-14T10:55:14.497Z,29.80
2023-05-14T10:57:44.015Z,29.90
2023-05-14T11:00:12.787Z,30.00
2023-05-14T11:02:44.350Z,30.00
2023-05-14T11:05:15.751Z,30.10
2023-05-14T11:07:43.753Z,30.10
2023-05-14T11:10:15.269Z,30.30
2023-05-14T11:12:47.508Z,30.40
2023-05-14T11:15:19.372Z,30.50
2023-05-14T11:17:47.717Z,30.60
2023-05-14T11:20:14.900Z,30.70
2023-05-14T11:22:43.202Z,30.80
2023-05-14T11:25:14.516Z,30.90
2023-05-14T11:27:44.525Z,30.90
2023-05-14T11:30:16.335Z,31.00
2023-05-14T11:32:45.796Z,31.00
2023-05-14T11:35:13.647Z,31.00
2023-05-14T11:37:40.783Z,31.00
2023-05-14T11:40:14.061Z,31.00
2023-05-14T11:42:41.062Z,31.00
2023-05-14T11:45:11.981Z,31.00
2023-05-14T11:47:40.687Z,30.90
2023-05-14T11:50:09.422Z,30.80
2023-05-14T11:52:41.676Z,30.70
2023-05-14T11:55:12.871Z,30.60
2023-05-14T11:57:41.004Z,30.50
2023-05-14T12:00:16.939Z,30.40
2023-05-14T12:02:44.022Z,30.30
2023-05-14T12:05:13.132Z,30.20
2023-05-14T12:07:40.353Z,30.00
2023-05-14T12:10:07.894Z,30.00
2023-05-14T12:12:37.104Z,29.90
2023-05-14T12:15:14.843Z,29.80
2023-05-14T12:17:42.187Z,29.80
2023-05-14T12:20:12.466Z,29.80
2023-05-14T12:22:41.409Z,29.80
2023-05-14T12:25:13.593Z,29.80
2023-05-14T12:27:41.312Z,29.80
2023-05-14T12:32:41.420Z,29.70
2023-05-14T12:35:09.263Z,29.70
2023-05-14T12:37:37.459Z,29.60
2023-05-14T12:40:09.114Z,29.50
2023-05-14T12:42:36.500Z,29.40
2023-05-14T12:45:07.204Z,29.30
2023-05-14T12:47:34.832Z,29.30
2023-05-14T12:50:02.077Z,29.20
2023-05-14T12:52:37.376Z,29.20
2023-05-14T12:55:07.299Z,29.10
2023-05-14T12:57:35.495Z,29.10
2023-05-14T13:00:06.814Z,29.00
2023-05-14T13:02:42.627Z,29.00
2023-05-14T13:05:11.674Z,28.90
2023-05-14T13:07:39.033Z,28.90
2023-05-14T13:10:06.945Z,28.80
2023-05-14T13:12:34.090Z,28.70
2023-05-14T13:15:00.930Z,28.70
2023-05-14T13:17:27.958Z,28.60
2023-05-14T13:19:54.817Z,28.60
2023-05-14T13:22:21.786Z,28.60
2023-05-14T13:24:48.561Z,28.50
2023-05-14T13:27:15.515Z,28.40
2023-05-14T13:29:42.701Z,28.40
2023-05-14T13:32:09.650Z,28.30
2023-05-14T13:34:36.509Z,28.30
2023-05-14T13:37:04.002Z,28.20
2023-05-14T13:39:31.063Z,28.10
2023-05-14T13:41:58.058Z,28.10
2023-05-14T13:44:24.843Z,28.00
2023-05-14T13:46:51.956Z,28.00
2023-05-14T13:49:19.115Z,28.00
2023-05-14T13:51:46.051Z,27.90
2023-05-14T13:54:13.208Z,27.80
2023-05-14T13:56:40.283Z,27.80
2023-05-14T13:59:07.380Z,27.80
2023-05-14T14:01:34.416Z,27.80
2023-05-14T14:04:01.257Z,27.70
2023-05-14T14:06:28.082Z,27.70
2023-05-14T14:08:54.938Z,27.70
2023-05-14T14:11:22.017Z,27.60
2023-05-14T14:13:48.982Z,27.60
2023-05-14T14:16:16.339Z,27.50
2023-05-14T14:18:43.633Z,27.50
2023-05-14T14:21:10.835Z,27.50
2023-05-14T14:23:37.786Z,27.50
2023-05-14T14:26:04.736Z,27.40
2023-05-14T14:28:31.672Z,27.40
2023-05-14T14:30:58.553Z,27.40
2023-05-14T14:33:25.725Z,27.30
2023-05-14T14:35:52.967Z,27.40
2023-05-14T14:38:19.922Z,27.30
2023-05-14T14:40:46.898Z,27.30
2023-05-14T14:43:13.848Z,27.30
2023-05-14T14:45:40.756Z,27.30
2023-05-14T14:48:27.328Z,27.30
2023-05-14T14:50:55.656Z,27.30
2023-05-14T14:53:23.657Z,27.30
2023-05-14T14:55:51.113Z,27.30
2023-05-14T14:58:19.427Z,27.20
2023-05-14T15:00:46.596Z,27.20
2023-05-14T15:03:15.047Z,27.20
2023-05-14T15:05:42.735Z,27.20
2023-05-14T15:08:09.993Z,27.10
2023-05-14T15:10:38.293Z,27.10
2023-05-14T15:13:06.444Z,27.00
2023-05-14T15:15:34.334Z,26.90
2023-05-14T15:18:01.923Z,26.90
2023-05-14T15:20:28.863Z,26.90
2023-05-14T15:22:56.199Z,26.80
2023-05-14T15:25:24.303Z,26.80
2023-05-14T15:27:52.360Z,26.80
2023-05-14T15:30:19.380Z,26.70
2023-05-14T15:32:46.747Z,26.70
2023-05-14T15:35:13.935Z,26.70
2023-05-14T15:37:44.592Z,26.70
2023-05-14T15:40:12.573Z,26.70
2023-05-14T15:42:44.238Z,26.70
2023-05-14T15:45:13.017Z,26.70
2023-05-14T15:47:40.869Z,26.70
2023-05-14T15:50:08.691Z,26.60
2023-05-14T15:52:39.174Z,26.60
2023-05-14T15:55:06.551Z,26.50
2023-05-14T15:57:34.260Z,26.50
2023-05-14T16:00:01.133Z,26.40
2023-05-14T16:02:30.466Z,26.40
2023-05-14T16:04:57.516Z,26.40
2023-05-14T16:07:24.446Z,26.30
2023-05-14T16:09:51.756Z,26.30
2023-05-14T16:12:18.826Z,26.20
2023-05-14T16:14:45.787Z,26.10
2023-05-14T16:17:12.829Z,26.10
2023-05-14T16:19:39.946Z,26.10
2023-05-14T16:22:06.833Z,26.00
2023-05-14T16:24:33.788Z,26.00
2023-05-14T16:27:00.923Z,25.90
2023-05-14T16:29:28.383Z,25.90
2023-05-14T16:31:55.999Z,25.80
2023-05-14T16:34:22.979Z,25.80
2023-05-14T16:36:49.830Z,25.70
2023-05-14T16:39:16.688Z,25.50
2023-05-14T16:41:43.569Z,25.50
2023-05-14T16:44:10.635Z,25.40
2023-05-14T16:46:37.905Z,25.40
2023-05-14T16:49:04.805Z,25.30
2023-05-14T16:51:31.877Z,25.20
2023-05-14T16:53:58.678Z,25.20
2023-05-14T16:56:26.570Z,25.10
2023-05-14T16:58:53.666Z,25.00
2023-05-14T17:01:20.701Z,25.00
2023-05-14T17:03:47.718Z,24.90
2023-05-14T17:06:14.615Z,24.80
2023-05-14T17:08:42.417Z,24.70
2023-05-14T17:11:09.243Z,24.60
2023-05-14T17:13:36.389Z,24.60
2023-05-14T17:16:03.394Z,24.50
2023-05-14T17:18:30.648Z,24.40
2023-05-14T17:20:57.521Z,24.40
2023-05-14T17:23:24.480Z,24.30
2023-05-14T17:25:51.344Z,24.30
2023-05-14T17:28:18.151Z,24.20
2023-05-14T17:30:45.110Z,24.20
2023-05-14T17:33:12.230Z,24.10
2023-05-14T17:35:39.281Z,24.00
2023-05-14T17:38:06.284Z,24.00
2023-05-14T17:40:33.633Z,23.90
2023-05-14T17:43:00.876Z,23.90
2023-05-14T17:45:29.507Z,23.90
2023-05-14T17:47:59.214Z,23.90
2023-05-14T17:50:26.317Z,23.80
2023-05-14T17:52:53.998Z,23.80
2023-05-14T17:55:22.209Z,23.70
2023-05-14T17:57:49.552Z,23.70
2023-05-14T18:00:16.706Z,23.60
2023-05-14T18:02:43.783Z,23.60
2023-05-14T18:05:11.012Z,23.50
2023-05-14T18:07:38.354Z,23.50
2023-05-14T18:10:05.918Z,23.40
2023-05-14T18:12:32.749Z,23.40
2023-05-14T18:14:59.629Z,23.30
2023-05-14T18:17:26.604Z,23.30
2023-05-14T18:19:53.500Z,23.20
2023-05-14T18:22:21.618Z,23.20
2023-05-14T18:24:48.714Z,23.10
2023-05-14T18:27:15.740Z,23.10
2023-05-14T18:29:43.438Z,23.00
2023-05-14T18:32:10.333Z,23.00
2023-05-14T18:34:37.230Z,22.90
2023-05-14T18:37:04.157Z,22.90
2023-05-14T18:39:31.202Z,22.80
2023-05-14T18:41:58.293Z,22.80
2023-05-14T18:44:25.214Z,22.80
2023-05-14T18:46:52.597Z,22.80
2023-05-14T18:49:19.435Z,22.70
2023-05-14T18:51:46.412Z,22.60
2023-05-14T18:54:13.312Z,22.50
2023-05-14T18:56:45.517Z,22.50
2023-05-14T18:59:14.377Z,22.40
2023-05-14T19:01:41.306Z,22.30
2023-05-14T19:04:08.694Z,22.30
2023-05-14T19:06:36.255Z,22.20
2023-05-14T19:09:04.414Z,22.10
2023-05-14T19:11:31.451Z,22.00
2023-05-14T19:13:58.345Z,21.90
2023-05-14T19:16:25.309Z,21.90
2023-05-14T19:18:52.474Z,21.80
2023-05-14T19:21:19.655Z,21.80
2023-05-14T19:23:46.627Z,21.80
2023-05-14T19:26:13.521Z,21.80
2023-05-14T19:28:40.412Z,21.70
2023-05-14T19:31:07.436Z,21.60
2023-05-14T19:33:34.431Z,21.60
2023-05-14T19:36:01.566Z,21.50
2023-05-14T19:38:29.637Z,21.50
2023-05-14T19:40:57.094Z,21.40
2023-05-14T19:43:25.530Z,21.40
2023-05-14T19:45:52.520Z,21.30
2023-05-14T19:48:19.683Z,21.20
2023-05-14T19:50:47.303Z,21.20
2023-05-14T19:53:14.420Z,21.10
2023-05-14T19:55:41.856Z,21.10
2023-05-14T19:58:09.047Z,21.00
2023-05-14T20:00:37.081Z,21.00
2023-05-14T20:03:04.466Z,21.00
2023-05-14T20:05:32.086Z,20.90
2023-05-14T20:07:59.085Z,20.90
2023-05-14T20:10:26.084Z,20.80
2023-05-14T20:12:53.175Z,20.80
2023-05-14T20:15:20.128Z,20.80
2023-05-14T20:17:47.269Z,20.70
2023-05-14T20:20:14.356Z,20.70
2023-05-14T20:22:42.852Z,20.70
2023-05-14T20:25:10.212Z,20.60
2023-05-14T20:27:37.267Z,20.60
2023-05-14T20:30:04.692Z,20.60
2023-05-14T20:32:31.671Z,20.60
2023-05-14T20:35:02.246Z,20.50
2023-05-14T20:37:33.234Z,20.50
2023-05-14T20:40:00.961Z,20.40
2023-05-14T20:42:28.324Z,20.40
2023-05-14T20:44:55.465Z,20.30
2023-05-14T20:47:26.540Z,20.30
2023-05-14T20:49:53.460Z,20.30
2023-05-14T20:52:20.295Z,20.30
2023-05-14T20:54:48.161Z,20.30
2023-05-14T20:57:15.967Z,20.30
2023-05-14T20:59:43.301Z,20.30
2023-05-14T21:02:10.818Z,20.20
2023-05-14T21:04:38.241Z,20.20
2023-05-14T21:07:06.189Z,20.20
2023-05-14T21:09:33.123Z,20.20
2023-05-14T21:12:00.419Z,20.20
2023-05-14T21:14:27.293Z,20.20
2023-05-14T21:16:54.204Z,20.10
2023-05-14T21:19:22.467Z,20.10
2023-05-14T21:21:49.440Z,20.10
2023-05-14T21:24:19.278Z,20.00
2023-05-14T21:26:46.689Z,20.00
2023-05-14T21:29:13.606Z,20.00
2023-05-14T21:31:40.897Z,19.90
2023-05-14T21:34:07.862Z,19.90
2023-05-14T21:36:34.727Z,19.80
2023-05-14T21:39:01.764Z,19.80
2023-05-14T21:41:30.567Z,19.80
2023-05-14T21:43:57.522Z,19.70
2023-05-14T21:46:25.687Z,19.70
2023-05-14T21:48:52.682Z,19.70
2023-05-14T21:51:19.624Z,19.70
2023-05-14T21:53:48.450Z,19.60
2023-05-14T21:56:15.643Z,19.70
2023-05-14T21:58:42.800Z,19.60
2023-05-14T22:01:11.599Z,19.60
2023-05-14T22:03:38.679Z,19.50
2023-05-14T22:06:05.950Z,19.60
2023-05-14T22:08:32.899Z,19.50
2023-05-14T22:10:59.725Z,19.50
2023-05-14T22:13:26.679Z,19.50
2023-05-14T22:16:01.333Z,19.40
2023-05-14T22:18:38.898Z,19.40
2023-05-14T22:21:05.935Z,19.40
2023-05-14T22:23:32.789Z,19.40
2023-05-14T22:25:59.925Z,19.30
2023-05-14T22:28:26.871Z,19.30
2023-05-14T22:30:53.905Z,19.30
2023-05-14T22:33:20.874Z,19.30
2023-05-14T22:35:48.062Z,19.30
2023-05-14T22:38:14.878Z,19.20
2023-05-14T22:40:41.915Z,19.20
2023-05-14T22:43:08.888Z,19.20
2023-05-14T22:45:35.783Z,19.20
2023-05-14T22:48:02.736Z,19.20
2023-05-14T22:50:29.568Z,19.10
2023-05-14T22:52:56.372Z,19.10
2023-05-14T22:55:23.683Z,19.00
2023-05-14T22:57:50.916Z,19.00
2023-05-14T23:00:17.954Z,19.00
2023-05-14T23:02:44.998Z,18.90
2023-05-14T23:05:12.181Z,18.90
2023-05-14T23:07:39.222Z,18.90
2023-05-14T23:10:06.656Z,18.90
2023-05-14T23:12:33.533Z,18.90
2023-05-14T23:15:00.635Z,18.80
2023-05-14T23:17:27.662Z,18.80
2023-05-14T23:19:54.788Z,18.80
2023-05-14T23:22:22.058Z,18.80
2023-05-14T23:24:48.957Z,18.80
2023-05-14T23:27:15.945Z,18.70
2023-05-14T23:29:42.965Z,18.80
2023-05-14T23:32:09.925Z,18.80
2023-05-14T23:34:36.907Z,18.70
2023-05-14T23:37:03.753Z,18.70
2023-05-14T23:39:30.767Z,18.60
2023-05-14T23:41:57.605Z,18.60
2023-05-14T23:44:24.501Z,18.50
2023-05-14T23:46:51.548Z,18.50
2023-05-14T23:49:18.528Z,18.50
2023-05-14T23:51:45.558Z,18.40
2023-05-14T23:54:12.486Z,18.40
2023-05-14T23:56:40.559Z,18.40
2023-05-14T23:59:07.515Z,18.40
